Archival Weather

Snohomish County (Paine Fld)

Everett, Washington (KPAE)

Report from: Tuesday, November 7, 2023 6:00 AM PST
Current time: Monday, June 17, 2024 1:25 AM PDT

Current weather – Weather history – Daily summaries
Weather forecast

Temperature10.0°C (50.0°F)
Wind chill8.8°C (47.8°F)
Dew point7.2°C (45.0°F)
Winds 5 kts (2.6 m/s, 5.8 mph) West-Northwest (300°)
Visibility10 mi. (16.1 km)
Clouds Ceiling: Broken clouds 1,500 ft. (457 m)
Overcast 2,100 ft. (640 m)
Altimeter29.88 in.Hg (1012 mB)
Relative humidity83 %
Density altitude-404 ft. (-123 m)
Remarks Fully automated report
Automated weather observing station with precipitation discriminator
Flight conditions Marginal Visual Meteorological Conditions
Raw dataKPAE 071400Z AUTO 30005KT 10SM BKN015 OVC021 10/07 A2988 RMK AO2 T01000072
An error has occurred. This application may no longer respond until reloaded. Reload 🗙